Time;durP1;ratioP1;P1;durP2;ratioP2;P2;SDS_P1;SDS_P2;PMS_P1;PMS_P2;Temp;Humidity;BMP_temperature;BMP_pressure;BME280_temperature;BME280_humidity;BME280_pressure;Samples;Min_cycle;Max_cycle;Signal;HPM_P1;HPM_P2
2022/10/17 00:01:53;;;;;;;172.52;56.40;;;;;;;;;;5056068;28;20395;-57
2022/10/17 00:04:21;;;;;;;167.18;51.25;;;;;;;;;;5053582;28;20504;-58
2022/10/17 00:06:47;;;;;;;189.73;52.08;;;;;;;;;;5057136;28;20124;-58
2022/10/17 00:09:14;;;;;;;158.85;46.63;;;;;;;;;;5069053;28;20049;-59
2022/10/17 00:11:40;;;;;;;223.57;51.17;;;;;;;;;;5051428;28;20055;-59
2022/10/17 00:14:07;;;;;;;148.95;47.97;;;;;;;;;;5054313;28;20409;-59
2022/10/17 00:16:36;;;;;;;149.02;49.17;;;;;;;;;;5054411;28;20077;-59
2022/10/17 00:19:04;;;;;;;151.85;47.80;;;;;;;;;;5053714;28;20048;-58
2022/10/17 00:21:30;;;;;;;132.13;46.20;;;;;;;;;;5066439;28;20059;-59
2022/10/17 00:23:57;;;;;;;149.63;47.80;;;;;;;;;;5066359;28;20040;-58
2022/10/17 00:26:24;;;;;;;178.98;51.70;;;;;;;;;;5064209;28;20044;-58
2022/10/17 00:28:51;;;;;;;173.48;53.53;;;;;;;;;;5055390;28;20092;-59
2022/10/17 00:31:19;;;;;;;181.98;53.95;;;;;;;;;;5054245;28;20037;-59
2022/10/17 00:33:45;;;;;;;174.45;52.22;;;;;;;;;;5053681;28;20063;-59
2022/10/17 00:36:14;;;;;;;141.20;44.63;;;;;;;;;;5053040;28;20041;-60
2022/10/17 00:38:42;;;;;;;182.50;48.00;;;;;;;;;;5050942;28;20033;-61
2022/10/17 00:41:10;;;;;;;162.38;47.35;;;;;;;;;;5051858;28;20044;-58
2022/10/17 00:43:49;;;;;;;132.85;45.47;;;;;;;;;;5054202;28;20052;-58
2022/10/17 00:46:16;;;;;;;151.90;47.17;;;;;;;;;;5052824;28;20041;-58
2022/10/17 00:48:43;;;;;;;203.68;54.17;;;;;;;;;;5053064;28;20068;-58
2022/10/17 00:51:09;;;;;;;157.73;49.83;;;;;;;;;;5054053;28;20040;-58
2022/10/17 00:53:36;;;;;;;170.05;48.65;;;;;;;;;;5048919;28;20053;-58
2022/10/17 00:56:03;;;;;;;147.93;49.65;;;;;;;;;;5063600;28;20040;-58
2022/10/17 00:58:30;;;;;;;165.07;52.78;;;;;;;;;;5056297;28;20557;-62
2022/10/17 01:00:57;;;;;;;189.50;53.70;;;;;;;;;;5053217;28;20091;-58
2022/10/17 01:03:24;;;;;;;207.13;56.05;;;;;;;;;;5052089;28;20044;-58
2022/10/17 01:05:50;;;;;;;193.85;54.13;;;;;;;;;;5051408;28;20052;-58
2022/10/17 01:08:17;;;;;;;151.98;50.38;;;;;;;;;;5050409;28;20044;-59
2022/10/17 01:10:53;;;;;;;192.05;53.03;;;;;;;;;;5053097;28;20045;-58
2022/10/17 01:13:25;;;;;;;167.90;51.28;;;;;;;;;;5053582;28;20439;-58
2022/10/17 01:16:10;;;;;;;164.88;48.60;;;;;;;;;;5052568;28;20033;-58
2022/10/17 01:18:54;;;;;;;151.55;46.92;;;;;;;;;;5052089;28;20072;-59
2022/10/17 01:21:29;;;;;;;168.52;50.67;;;;;;;;;;5052739;28;20040;-58
2022/10/17 01:23:58;;;;;;;183.13;49.92;;;;;;;;;;5056888;28;20043;-58
2022/10/17 01:26:40;;;;;;;142.23;45.10;;;;;;;;;;5063291;28;20045;-58
2022/10/17 01:29:13;;;;;;;126.15;42.63;;;;;;;;;;5065341;28;20144;-58
2022/10/17 01:31:45;;;;;;;157.82;44.42;;;;;;;;;;5055971;28;20045;-59
2022/10/17 01:34:12;;;;;;;123.70;39.83;;;;;;;;;;5051798;28;20179;-58
2022/10/17 01:36:44;;;;;;;141.75;40.17;;;;;;;;;;5051360;28;20041;-58
2022/10/17 01:39:10;;;;;;;166.80;41.15;;;;;;;;;;5048202;28;20051;-58
2022/10/17 01:41:40;;;;;;;131.57;39.83;;;;;;;;;;5048036;28;20145;-58
2022/10/17 01:44:07;;;;;;;127.78;43.33;;;;;;;;;;5052370;28;20041;-57
2022/10/17 01:46:42;;;;;;;187.30;45.80;;;;;;;;;;5052052;28;20045;-57
2022/10/17 01:49:09;;;;;;;178.98;46.00;;;;;;;;;;5051286;28;20044;-57
2022/10/17 01:51:45;;;;;;;170.88;42.60;;;;;;;;;;5051753;28;20041;-57
2022/10/17 01:54:32;;;;;;;125.57;39.67;;;;;;;;;;5051595;28;20078;-57
2022/10/17 01:57:02;;;;;;;128.95;39.83;;;;;;;;;;5050927;28;20048;-58
2022/10/17 01:59:34;;;;;;;102.78;38.78;;;;;;;;;;5067945;28;20094;-57
2022/10/17 02:02:01;;;;;;;115.15;41.47;;;;;;;;;;5051256;28;20131;-57
2022/10/17 02:04:28;;;;;;;175.77;44.55;;;;;;;;;;5052588;28;20485;-57
2022/10/17 02:06:54;;;;;;;152.63;43.65;;;;;;;;;;5052861;28;20382;-57
2022/10/17 02:09:22;;;;;;;136.10;42.50;;;;;;;;;;5069282;28;20095;-61
2022/10/17 02:11:51;;;;;;;170.57;46.20;;;;;;;;;;5068572;28;20045;-59
2022/10/17 02:14:24;;;;;;;144.50;46.85;;;;;;;;;;5050048;28;20049;-58
2022/10/17 02:16:54;;;;;;;179.77;49.63;;;;;;;;;;5062526;28;20830;-60
2022/10/17 02:19:39;;;;;;;145.77;44.58;;;;;;;;;;5078500;28;20037;-58
2022/10/17 02:22:05;;;;;;;202.50;49.70;;;;;;;;;;5067114;28;20033;-60
2022/10/17 02:24:39;;;;;;;152.02;46.63;;;;;;;;;;5051724;28;20060;-62
2022/10/17 02:27:05;;;;;;;;;;;;;;;;;;5066183;28;20044;-60
2022/10/17 02:29:35;;;;;;;179.60;47.35;;;;;;;;;;5068505;28;19924;-61
2022/10/17 02:32:05;;;;;;;146.63;46.95;;;;;;;;;;5057018;28;20102;-61
2022/10/17 02:34:37;;;;;;;166.75;47.50;;;;;;;;;;5055118;28;20052;-61
2022/10/17 02:37:05;;;;;;;131.73;45.55;;;;;;;;;;5056492;28;20040;-60
2022/10/17 02:39:33;;;;;;;135.57;46.63;;;;;;;;;;5055300;28;20048;-60
2022/10/17 02:42:01;;;;;;;157.13;49.00;;;;;;;;;;5055390;28;20133;-60
2022/10/17 02:44:29;;;;;;;181.85;51.05;;;;;;;;;;5051735;28;20029;-60
2022/10/17 02:47:06;;;;;;;243.93;55.22;;;;;;;;;;5054727;28;20080;-61
2022/10/17 02:49:35;;;;;;;212.77;56.28;;;;;;;;;;5057354;28;20048;-63
2022/10/17 02:52:20;;;;;;;165.43;53.17;;;;;;;;;;5056242;28;20048;-61
2022/10/17 02:54:50;;;;;;;228.35;55.13;;;;;;;;;;5054370;28;20049;-60
2022/10/17 02:57:23;;;;;;;178.70;52.95;;;;;;;;;;5055664;28;20492;-60
2022/10/17 02:59:50;;;;;;;164.32;51.42;;;;;;;;;;5052625;28;20045;-60
2022/10/17 03:02:17;;;;;;;195.05;51.72;;;;;;;;;;5054028;28;20053;-59
2022/10/17 03:04:44;;;;;;;197.93;55.38;;;;;;;;;;5056267;28;20136;-59
2022/10/17 03:07:11;;;;;;;162.32;51.35;;;;;;;;;;5054362;28;20055;-59
2022/10/17 03:09:37;;;;;;;176.52;55.50;;;;;;;;;;5055768;28;20041;-59
2022/10/17 03:12:04;;;;;;;174.10;54.95;;;;;;;;;;5053801;28;20044;-59
2022/10/17 03:14:31;;;;;;;161.98;52.55;;;;;;;;;;5051224;28;20081;-59
2022/10/17 03:16:57;;;;;;;213.90;56.63;;;;;;;;;;5066824;28;20056;-59
2022/10/17 03:19:24;;;;;;;158.77;50.65;;;;;;;;;;5065881;28;20077;-59
2022/10/17 03:21:52;;;;;;;168.30;53.47;;;;;;;;;;5073073;28;20572;-60
2022/10/17 03:24:18;;;;;;;206.90;55.47;;;;;;;;;;5055474;28;20039;-60
2022/10/17 03:26:44;;;;;;;203.55;56.83;;;;;;;;;;5066841;28;20583;-60
2022/10/17 03:29:16;;;;;;;171.82;53.20;;;;;;;;;;5070656;28;20041;-59
2022/10/17 03:31:43;;;;;;;189.70;55.83;;;;;;;;;;5056502;28;20529;-60
2022/10/17 03:34:09;;;;;;;180.48;54.63;;;;;;;;;;5054232;28;20048;-60
2022/10/17 03:36:36;;;;;;;218.05;60.70;;;;;;;;;;5054241;28;20145;-60
2022/10/17 03:39:03;;;;;;;196.23;58.90;;;;;;;;;;5052545;28;20503;-61
2022/10/17 03:41:29;;;;;;;157.77;53.63;;;;;;;;;;5050654;28;20118;-60
2022/10/17 03:43:56;;;;;;;187.48;58.03;;;;;;;;;;5056830;28;20114;-61
2022/10/17 03:46:23;;;;;;;215.23;59.78;;;;;;;;;;5059518;28;20424;-61
2022/10/17 03:48:50;;;;;;;220.25;61.78;;;;;;;;;;5052783;28;20374;-60
2022/10/17 03:51:17;;;;;;;207.05;59.58;;;;;;;;;;5054541;28;20071;-60
2022/10/17 03:53:49;;;;;;;216.10;58.53;;;;;;;;;;5050893;28;20053;-60
2022/10/17 03:56:20;;;;;;;208.27;59.67;;;;;;;;;;5052473;28;20137;-61
2022/10/17 03:58:55;;;;;;;245.32;64.35;;;;;;;;;;5053236;28;20064;-61
2022/10/17 04:01:22;;;;;;;190.55;59.33;;;;;;;;;;5054401;28;20568;-60
2022/10/17 04:03:50;;;;;;;221.43;61.63;;;;;;;;;;5052908;28;20045;-61
2022/10/17 04:06:17;;;;;;;214.07;59.47;;;;;;;;;;5053415;28;20048;-61
2022/10/17 04:08:44;;;;;;;249.35;64.13;;;;;;;;;;5049930;28;20037;-59
2022/10/17 04:11:16;;;;;;;208.82;60.70;;;;;;;;;;5053046;28;20045;-59
2022/10/17 04:13:43;;;;;;;222.98;59.92;;;;;;;;;;5079375;28;20103;-58
2022/10/17 04:16:12;;;;;;;190.50;59.70;;;;;;;;;;5060123;28;20500;-59
2022/10/17 04:18:51;;;;;;;215.00;63.50;;;;;;;;;;5069124;28;20045;-61
2022/10/17 04:21:18;;;;;;;199.90;59.47;;;;;;;;;;5053274;28;20511;-61
2022/10/17 04:23:45;;;;;;;201.85;59.38;;;;;;;;;;5050113;28;20519;-60
2022/10/17 04:26:24;;;;;;;214.85;61.38;;;;;;;;;;5060546;28;20048;-62
2022/10/17 04:28:51;;;;;;;211.13;60.67;;;;;;;;;;5080327;28;20044;-62
2022/10/17 04:31:17;;;;;;;179.10;55.45;;;;;;;;;;5053640;28;20067;-62
2022/10/17 04:34:06;;;;;;;173.80;58.47;;;;;;;;;;5052456;28;20045;-62
2022/10/17 04:36:32;;;;;;;224.57;61.03;;;;;;;;;;5053004;28;20041;-62
2022/10/17 04:39:02;;;;;;;207.25;59.17;;;;;;;;;;5051376;28;20851;-62
2022/10/17 04:41:29;;;;;;;191.40;61.50;;;;;;;;;;5064012;28;20131;-59
2022/10/17 04:43:55;;;;;;;181.65;59.90;;;;;;;;;;5055230;28;20041;-59
2022/10/17 04:46:22;;;;;;;205.85;60.67;;;;;;;;;;5053018;28;20050;-59
2022/10/17 04:48:49;;;;;;;268.67;65.95;;;;;;;;;;5053191;28;20405;-58
2022/10/17 04:51:17;;;;;;;194.25;58.95;;;;;;;;;;5052834;28;20045;-59
2022/10/17 04:54:17;;;;;;;237.20;66.53;;;;;;;;;;5050228;28;20044;-58
2022/10/17 04:56:48;;;;;;;257.05;66.88;;;;;;;;;;5048367;28;20486;-59
2022/10/17 04:59:14;;;;;;;199.38;59.67;;;;;;;;;;5068682;28;20041;-58
2022/10/17 05:01:43;;;;;;;221.90;62.03;;;;;;;;;;5054083;28;20041;-59
2022/10/17 05:04:09;;;;;;;257.83;63.10;;;;;;;;;;5049313;28;20059;-58
2022/10/17 05:06:36;;;;;;;215.10;59.80;;;;;;;;;;5051753;28;20051;-59
2022/10/17 05:09:23;;;;;;;238.75;60.55;;;;;;;;;;5051078;28;20067;-58
2022/10/17 05:11:50;;;;;;;238.52;61.03;;;;;;;;;;5047857;28;20135;-58
2022/10/17 05:14:17;;;;;;;200.70;60.17;;;;;;;;;;5049856;28;20049;-58
2022/10/17 05:16:44;;;;;;;215.57;59.90;;;;;;;;;;5062202;28;20135;-58
2022/10/17 05:19:11;;;;;;;190.25;58.20;;;;;;;;;;5058749;28;20607;-58
2022/10/17 05:21:43;;;;;;;181.98;55.53;;;;;;;;;;5052118;28;20045;-59
2022/10/17 05:24:12;;;;;;;204.93;57.90;;;;;;;;;;5053174;28;20395;-59
2022/10/17 05:26:38;;;;;;;178.85;56.42;;;;;;;;;;5060448;28;20041;-59
2022/10/17 05:29:05;;;;;;;231.48;58.92;;;;;;;;;;5056956;28;20073;-59
2022/10/17 05:31:36;;;;;;;214.38;57.45;;;;;;;;;;5052238;28;20114;-58
2022/10/17 05:34:04;;;;;;;177.00;55.70;;;;;;;;;;5051591;28;20127;-59
2022/10/17 05:36:35;;;;;;;202.25;58.15;;;;;;;;;;5052105;28;20049;-59
2022/10/17 05:39:03;;;;;;;179.73;56.83;;;;;;;;;;5051111;28;20040;-59
2022/10/17 05:41:31;;;;;;;218.98;57.03;;;;;;;;;;5048708;28;20045;-59
2022/10/17 05:43:58;;;;;;;195.80;57.92;;;;;;;;;;5051845;28;20041;-59
2022/10/17 05:46:38;;;;;;;185.63;57.80;;;;;;;;;;5051573;28;20160;-59
2022/10/17 05:49:04;;;;;;;204.30;57.20;;;;;;;;;;5051434;28;20049;-58
2022/10/17 05:51:52;;;;;;;175.63;57.20;;;;;;;;;;5051403;28;20132;-59
2022/10/17 05:54:19;;;;;;;177.43;56.67;;;;;;;;;;5051986;28;20500;-59
2022/10/17 05:56:50;;;;;;;202.57;57.15;;;;;;;;;;5048047;28;20040;-58
2022/10/17 05:59:17;;;;;;;157.70;51.60;;;;;;;;;;5068053;28;20456;-59
2022/10/17 06:02:06;;;;;;;190.43;52.63;;;;;;;;;;5050894;28;20048;-58
2022/10/17 06:04:33;;;;;;;160.90;51.08;;;;;;;;;;5051330;28;20048;-59
2022/10/17 06:07:00;;;;;;;125.25;47.80;;;;;;;;;;5051084;28;20132;-58
2022/10/17 06:09:28;;;;;;;145.70;47.25;;;;;;;;;;5051260;28;20660;-58
2022/10/17 06:11:55;;;;;;;168.25;49.25;;;;;;;;;;5064046;28;20041;-59
2022/10/17 06:14:22;;;;;;;135.75;44.92;;;;;;;;;;5066844;28;20587;-58
2022/10/17 06:16:52;;;;;;;162.50;46.72;;;;;;;;;;5066628;28;20536;-59
2022/10/17 06:19:19;;;;;;;116.68;43.38;;;;;;;;;;5057736;28;20052;-58
2022/10/17 06:21:45;;;;;;;134.88;43.22;;;;;;;;;;5050906;28;20041;-59
2022/10/17 06:24:16;;;;;;;142.25;43.25;;;;;;;;;;5051289;28;20988;-58
2022/10/17 06:26:43;;;;;;;149.45;42.92;;;;;;;;;;5059701;28;20098;-58
2022/10/17 06:29:12;;;;;;;166.55;42.80;;;;;;;;;;5050602;28;20044;-59
2022/10/17 06:31:44;;;;;;;92.13;36.95;;;;;;;;;;5051084;28;20472;-58
2022/10/17 06:34:10;;;;;;;105.85;36.35;;;;;;;;;;5054007;28;20382;-58
2022/10/17 06:36:38;;;;;;;144.18;37.35;;;;;;;;;;5050616;28;20512;-58
2022/10/17 06:39:05;;;;;;;71.43;31.55;;;;;;;;;;5050938;28;20063;-58
2022/10/17 06:41:38;;;;;;;89.75;33.05;;;;;;;;;;5052010;28;20099;-59
2022/10/17 06:44:10;;;;;;;86.63;30.30;;;;;;;;;;5051284;28;20135;-59
2022/10/17 06:46:45;;;;;;;130.13;32.65;;;;;;;;;;5052442;28;20041;-57
2022/10/17 06:49:14;;;;;;;106.47;28.08;;;;;;;;;;5050222;28;20045;-57
2022/10/17 06:51:46;;;;;;;65.20;25.50;;;;;;;;;;5052514;28;20404;-58
2022/10/17 06:54:15;;;;;;;65.78;25.17;;;;;;;;;;5051144;28;20045;-57
2022/10/17 06:56:47;;;;;;;104.93;27.38;;;;;;;;;;5048770;28;20095;-57
2022/10/17 06:59:14;;;;;;;61.90;23.38;;;;;;;;;;5052049;28;20049;-60
2022/10/17 07:01:48;;;;;;;87.68;25.98;;;;;;;;;;5050630;28;20077;-57
2022/10/17 07:04:15;;;;;;;62.08;23.88;;;;;;;;;;5051163;28;20448;-57
2022/10/17 07:06:41;;;;;;;88.90;25.50;;;;;;;;;;5050543;28;20045;-57
2022/10/17 07:09:15;;;;;;;;;;;;;;;;;;5051515;28;20132;-57
2022/10/17 07:11:42;;;;;;;68.40;24.52;;;;;;;;;;5047097;28;19932;-57
2022/10/17 07:14:09;;;;;;;83.07;27.00;;;;;;;;;;5073553;28;20044;-57
2022/10/17 07:16:36;;;;;;;102.70;27.42;;;;;;;;;;5058868;28;20098;-57
2022/10/17 07:19:08;;;;;;;73.60;24.63;;;;;;;;;;5053982;28;20033;-57
2022/10/17 07:21:37;;;;;;;66.47;23.10;;;;;;;;;;5054538;28;20413;-57
2022/10/17 07:24:06;;;;;;;88.55;23.80;;;;;;;;;;5053521;28;20044;-57
2022/10/17 07:26:33;;;;;;;90.88;24.38;;;;;;;;;;5062053;28;20128;-57
2022/10/17 07:29:00;;;;;;;61.55;22.23;;;;;;;;;;5065694;28;20517;-57
2022/10/17 07:31:50;;;;;;;59.75;23.17;;;;;;;;;;5052843;28;20076;-57
2022/10/17 07:34:17;;;;;;;55.72;22.73;;;;;;;;;;5058146;28;20374;-57
2022/10/17 07:36:44;;;;;;;104.68;27.65;;;;;;;;;;5065370;28;20453;-57
2022/10/17 07:39:12;;;;;;;84.75;24.08;;;;;;;;;;5067525;28;20076;-58
2022/10/17 07:41:39;;;;;;;62.33;22.55;;;;;;;;;;5069478;28;20056;-58
2022/10/17 07:44:06;;;;;;;53.90;21.65;;;;;;;;;;5064820;28;20045;-58
2022/10/17 07:46:38;;;;;;;115.22;25.90;;;;;;;;;;5061058;28;20076;-58
2022/10/17 07:49:05;;;;;;;58.65;23.23;;;;;;;;;;5043496;28;20072;-58
2022/10/17 07:51:32;;;;;;;73.80;24.58;;;;;;;;;;5054857;28;20080;-58
2022/10/17 07:53:59;;;;;;;68.57;23.38;;;;;;;;;;5068906;28;20537;-57
2022/10/17 07:56:26;;;;;;;45.70;22.42;;;;;;;;;;5050717;28;20049;-58
2022/10/17 07:58:52;;;;;;;61.80;23.73;;;;;;;;;;5052046;28;20041;-58
2022/10/17 08:01:19;;;;;;;83.07;24.40;;;;;;;;;;5052389;28;20049;-58
2022/10/17 08:03:47;;;;;;;70.25;23.95;;;;;;;;;;5052039;28;20041;-58
2022/10/17 08:06:14;;;;;;;57.17;23.70;;;;;;;;;;5052750;28;20043;-58
2022/10/17 08:08:40;;;;;;;61.50;22.67;;;;;;;;;;5049503;28;20060;-58
2022/10/17 08:11:08;;;;;;;72.15;23.92;;;;;;;;;;5063509;28;20571;-58
2022/10/17 08:13:36;;;;;;;69.55;23.40;;;;;;;;;;5063531;28;20098;-58
2022/10/17 08:16:04;;;;;;;85.57;22.40;;;;;;;;;;5054703;28;20033;-58
2022/10/17 08:18:31;;;;;;;58.35;21.40;;;;;;;;;;5054235;28;20457;-58
2022/10/17 08:21:01;;;;;;;84.13;23.75;;;;;;;;;;5052482;28;20049;-58
2022/10/17 08:23:28;;;;;;;95.70;24.27;;;;;;;;;;5052870;28;20045;-58
2022/10/17 08:25:57;;;;;;;53.33;22.08;;;;;;;;;;5063074;28;20515;-58
2022/10/17 08:28:23;;;;;;;59.72;23.25;;;;;;;;;;5060310;28;20045;-58
2022/10/17 08:30:50;;;;;;;63.22;23.10;;;;;;;;;;5054091;28;20037;-58
2022/10/17 08:33:16;;;;;;;79.93;22.70;;;;;;;;;;5054578;28;20041;-58
2022/10/17 08:35:43;;;;;;;64.63;22.15;;;;;;;;;;5050689;28;20059;-58
2022/10/17 08:38:10;;;;;;;72.70;23.77;;;;;;;;;;5054023;28;20049;-58
2022/10/17 08:40:41;;;;;;;83.90;23.80;;;;;;;;;;5053772;28;20036;-58
2022/10/17 08:43:14;;;;;;;62.92;22.83;;;;;;;;;;5054010;28;20143;-58
2022/10/17 08:45:40;;;;;;;75.03;24.13;;;;;;;;;;5054165;28;20044;-58
2022/10/17 08:48:09;;;;;;;80.75;23.30;;;;;;;;;;5053022;28;20037;-58
2022/10/17 08:50:36;;;;;;;81.95;23.15;;;;;;;;;;5050753;28;20126;-58
2022/10/17 08:53:32;;;;;;;55.33;22.23;;;;;;;;;;5054647;28;20056;-58
2022/10/17 08:56:01;;;;;;;50.30;21.70;;;;;;;;;;5062133;28;20431;-58
2022/10/17 08:58:29;;;;;;;55.00;21.58;;;;;;;;;;5059137;28;20773;-58
2022/10/17 09:00:56;;;;;;;75.20;22.45;;;;;;;;;;5053661;28;20048;-58
2022/10/17 09:03:43;;;;;;;58.47;21.85;;;;;;;;;;5053884;28;20036;-58
2022/10/17 09:06:12;;;;;;;80.13;23.23;;;;;;;;;;5053641;28;20404;-58
2022/10/17 09:08:56;;;;;;;74.55;22.77;;;;;;;;;;5050076;28;20037;-58
2022/10/17 09:11:22;;;;;;;;;;;;;;;;;;5062203;28;20121;-58
2022/10/17 09:14:05;;;;;;;88.90;22.63;;;;;;;;;;5056300;28;20373;-58
2022/10/17 09:16:38;;;;;;;85.88;23.00;;;;;;;;;;5054055;28;20060;-58
2022/10/17 09:19:19;;;;;;;113.38;25.02;;;;;;;;;;5052406;28;20489;-58
2022/10/17 09:22:09;;;;;;;81.88;22.65;;;;;;;;;;5053615;28;20033;-58
2022/10/17 09:24:41;;;;;;;54.78;20.75;;;;;;;;;;5053295;28;20721;-58
2022/10/17 09:27:28;;;;;;;161.73;27.63;;;;;;;;;;5068086;28;20033;-58
2022/10/17 09:30:01;;;;;;;84.28;22.52;;;;;;;;;;5064740;28;20098;-58
2022/10/17 09:32:28;;;;;;;67.80;24.02;;;;;;;;;;5051675;28;20040;-58
2022/10/17 09:34:55;;;;;;;45.85;19.58;;;;;;;;;;5053017;28;20053;-58
2022/10/17 09:37:26;;;;;;;119.88;22.67;;;;;;;;;;5052371;28;20541;-58
2022/10/17 09:39:52;;;;;;;56.67;21.00;;;;;;;;;;5051800;28;20102;-58
2022/10/17 09:42:23;;;;;;;69.82;19.45;;;;;;;;;;5053088;28;20044;-58
2022/10/17 09:45:13;;;;;;;82.38;21.42;;;;;;;;;;5050017;28;20572;-58
2022/10/17 09:47:45;;;;;;;58.60;22.08;;;;;;;;;;5049964;28;20049;-58
2022/10/17 09:50:26;;;;;;;81.75;22.75;;;;;;;;;;5052936;28;20099;-59
2022/10/17 09:52:53;;;;;;;42.92;19.40;;;;;;;;;;5053015;28;20041;-58
2022/10/17 09:55:32;;;;;;;58.28;19.67;;;;;;;;;;5052632;28;20040;-59
2022/10/17 09:58:03;;;;;;;52.60;20.50;;;;;;;;;;5051934;28;20043;-58
2022/10/17 10:00:32;;;;;;;65.85;21.75;;;;;;;;;;5053360;28;20506;-58
2022/10/17 10:03:18;;;;;;;98.20;23.70;;;;;;;;;;5050685;28;20501;-61
2022/10/17 10:06:04;;;;;;;76.45;20.83;;;;;;;;;;5052791;28;20132;-58
2022/10/17 10:08:32;;;;;;;58.85;25.08;;;;;;;;;;5078078;28;20376;-58
2022/10/17 10:11:02;;;;;;;96.85;28.70;;;;;;;;;;5055697;28;20063;-59
2022/10/17 10:13:29;;;;;;;74.75;24.98;;;;;;;;;;5053235;28;20108;-59
2022/10/17 10:16:13;;;;;;;53.97;23.35;;;;;;;;;;5052856;28;20037;-58
2022/10/17 10:18:39;;;;;;;93.47;23.65;;;;;;;;;;5055208;28;20386;-59
2022/10/17 10:21:25;;;;;;;108.35;22.30;;;;;;;;;;5051363;28;20051;-59
2022/10/17 10:23:58;;;;;;;90.45;21.23;;;;;;;;;;5053000;28;20053;-58
2022/10/17 10:26:25;;;;;;;78.18;20.55;;;;;;;;;;5066174;28;20702;-59
2022/10/17 10:28:52;;;;;;;49.67;17.67;;;;;;;;;;5055387;28;20071;-58
2022/10/17 10:31:25;;;;;;;71.45;20.17;;;;;;;;;;5052175;28;20037;-59
2022/10/17 10:33:51;;;;;;;67.50;19.60;;;;;;;;;;5052382;28;20106;-59
2022/10/17 10:36:23;;;;;;;76.03;19.45;;;;;;;;;;5052865;28;20028;-59
2022/10/17 10:38:51;;;;;;;77.00;19.90;;;;;;;;;;5049119;28;20037;-59
2022/10/17 10:41:18;;;;;;;77.45;19.15;;;;;;;;;;5051576;28;20481;-59
2022/10/17 10:43:46;;;;;;;72.22;21.10;;;;;;;;;;5052224;28;20045;-59
2022/10/17 10:46:23;;;;;;;81.63;20.77;;;;;;;;;;5052929;28;20032;-59
2022/10/17 10:48:49;;;;;;;130.25;22.42;;;;;;;;;;5053270;28;20041;-59
2022/10/17 10:51:17;;;;;;;85.45;20.90;;;;;;;;;;5056483;28;20123;-58
2022/10/17 10:53:56;;;;;;;52.53;18.67;;;;;;;;;;5052655;28;20075;-59
2022/10/17 10:56:30;;;;;;;45.22;18.02;;;;;;;;;;5054277;28;20123;-58
2022/10/17 10:59:03;;;;;;;44.33;18.80;;;;;;;;;;5056343;28;20045;-59
2022/10/17 11:01:49;;;;;;;39.72;16.83;;;;;;;;;;5055925;28;20052;-58
2022/10/17 11:04:24;;;;;;;81.25;19.35;;;;;;;;;;5041307;28;20045;-59
2022/10/17 11:06:54;;;;;;;69.75;19.17;;;;;;;;;;5049192;28;20445;-59
2022/10/17 11:09:28;;;;;;;62.50;17.95;;;;;;;;;;5062598;28;20071;-59
2022/10/17 11:12:19;;;;;;;66.88;18.90;;;;;;;;;;5049117;28;20037;-58
2022/10/17 11:14:50;;;;;;;86.63;20.58;;;;;;;;;;4990043;28;20113;-58
2022/10/17 11:17:19;;;;;;;87.35;20.15;;;;;;;;;;4989718;28;20593;-58
2022/10/17 11:19:55;;;;;;;59.53;18.88;;;;;;;;;;4989673;28;20064;-58
2022/10/17 11:22:32;;;;;;;51.63;16.88;;;;;;;;;;4989532;28;20053;-58
2022/10/17 11:25:04;;;;;;;61.53;17.58;;;;;;;;;;4989144;28;20081;-58
2022/10/17 11:27:32;;;;;;;48.22;17.05;;;;;;;;;;4989353;28;20318;-59
2022/10/17 11:29:59;;;;;;;78.57;16.17;;;;;;;;;;4990180;28;20435;-59
2022/10/17 11:32:40;;;;;;;39.50;14.55;;;;;;;;;;4989680;28;20508;-58
2022/10/17 11:35:15;;;;;;;45.00;15.68;;;;;;;;;;4989348;28;20050;-58
2022/10/17 11:37:45;;;;;;;67.43;16.52;;;;;;;;;;4989146;28;20592;-58
2022/10/17 11:40:20;;;;;;;58.72;16.00;;;;;;;;;;4989282;28;20121;-59
2022/10/17 11:42:52;;;;;;;86.40;19.20;;;;;;;;;;4993017;28;20093;-59
2022/10/17 11:45:21;;;;;;;56.10;16.38;;;;;;;;;;4993405;28;20054;-59
2022/10/17 11:47:53;;;;;;;103.32;18.65;;;;;;;;;;4989317;28;20568;-59
2022/10/17 11:50:31;;;;;;;48.78;14.15;;;;;;;;;;4993561;28;20050;-59
2022/10/17 11:53:20;;;;;;;93.72;17.88;;;;;;;;;;5053894;28;20043;-59
2022/10/17 11:55:48;;;;;;;46.45;14.90;;;;;;;;;;5055781;28;20049;-59
2022/10/17 11:58:23;;;;;;;48.28;15.10;;;;;;;;;;5054680;28;20382;-59
2022/10/17 12:01:08;;;;;;;72.68;15.68;;;;;;;;;;5054397;28;20044;-59
2022/10/17 12:04:10;;;;;;;76.75;16.67;;;;;;;;;;5054753;28;20037;-59
2022/10/17 12:07:03;;;;;;;77.32;16.77;;;;;;;;;;5053654;28;20227;-59
2022/10/17 12:09:39;;;;;;;38.92;13.85;;;;;;;;;;4984408;28;20066;-59
2022/10/17 12:12:06;;;;;;;82.80;17.92;;;;;;;;;;4970204;28;20055;-59
2022/10/17 12:14:32;;;;;;;54.72;14.82;;;;;;;;;;4988415;28;20062;-58
2022/10/17 12:16:59;;;;;;;89.75;17.00;;;;;;;;;;4984328;28;20050;-59
2022/10/17 12:19:27;;;;;;;117.97;16.70;;;;;;;;;;4983918;28;20042;-58
2022/10/17 12:21:54;;;;;;;38.53;14.98;;;;;;;;;;4984475;28;20073;-58
2022/10/17 12:24:35;;;;;;;72.40;16.35;;;;;;;;;;4984043;28;20129;-58
2022/10/17 12:27:42;;;;;;;75.55;17.45;;;;;;;;;;4986387;28;20066;-59
2022/10/17 12:30:11;;;;;;;120.25;19.40;;;;;;;;;;4964406;28;20413;-59
2022/10/17 12:32:57;;;;;;;130.23;19.52;;;;;;;;;;4968534;28;20061;-58
2022/10/17 12:35:33;;;;;;;74.25;17.48;;;;;;;;;;4967187;28;20059;-58
2022/10/17 12:38:02;;;;;;;41.42;15.85;;;;;;;;;;4964422;28;20047;-59
2022/10/17 12:40:34;;;;;;;98.25;18.48;;;;;;;;;;4964348;28;20065;-59
2022/10/17 12:43:02;;;;;;;55.60;20.70;;;;;;;;;;4964917;28;20038;-58
2022/10/17 12:45:47;;;;;;;73.47;38.67;;;;;;;;;;4970350;28;20062;-58
2022/10/17 12:48:32;;;;;;;80.68;32.95;;;;;;;;;;5006934;28;21095;-59
2022/10/17 12:51:16;;;;;;;70.13;19.60;;;;;;;;;;5007693;28;20112;-58
2022/10/17 12:54:07;;;;;;;157.48;20.88;;;;;;;;;;5007526;28;20058;-58
2022/10/17 12:56:34;;;;;;;78.82;18.77;;;;;;;;;;5008980;28;20049;-59
2022/10/17 12:59:04;;;;;;;103.88;20.55;;;;;;;;;;5007274;28;20046;-58
2022/10/17 13:01:32;;;;;;;100.75;27.48;;;;;;;;;;5042878;28;20049;-58
2022/10/17 13:04:04;;;;;;;70.03;20.77;;;;;;;;;;5054204;28;20051;-59
2022/10/17 13:06:38;;;;;;;87.63;17.88;;;;;;;;;;5060292;28;20060;-58
2022/10/17 13:09:25;;;;;;;87.60;17.27;;;;;;;;;;5067702;28;20054;-58
2022/10/17 13:11:52;;;;;;;72.47;15.57;;;;;;;;;;5053665;28;20102;-58
2022/10/17 13:14:20;;;;;;;99.35;18.65;;;;;;;;;;5052397;28;20045;-59
2022/10/17 13:16:54;;;;;;;56.22;17.35;;;;;;;;;;5053379;28;20044;-58
2022/10/17 13:19:22;;;;;;;62.78;15.00;;;;;;;;;;5052470;28;20049;-58
2022/10/17 13:21:57;;;;;;;64.55;17.00;;;;;;;;;;5053222;28;20037;-59
2022/10/17 13:24:30;;;;;;;65.85;16.63;;;;;;;;;;5053267;28;20093;-58
2022/10/17 13:26:57;;;;;;;74.43;16.38;;;;;;;;;;5066721;28;20037;-58
2022/10/17 13:29:24;;;;;;;84.38;17.10;;;;;;;;;;5051948;28;20094;-58
2022/10/17 13:31:53;;;;;;;335.67;32.08;;;;;;;;;;5053907;28;20382;-58
2022/10/17 13:34:21;;;;;;;105.88;18.55;;;;;;;;;;5052261;28;20041;-58
2022/10/17 13:36:53;;;;;;;74.60;16.70;;;;;;;;;;5053575;28;20071;-59
2022/10/17 13:39:21;;;;;;;92.95;20.05;;;;;;;;;;5053247;28;20025;-58
2022/10/17 13:42:04;;;;;;;146.50;20.83;;;;;;;;;;5051251;28;20037;-58
2022/10/17 13:44:34;;;;;;;69.15;15.00;;;;;;;;;;5051064;28;20037;-59
2022/10/17 13:47:03;;;;;;;88.22;16.45;;;;;;;;;;5052927;28;20131;-58
2022/10/17 13:49:48;;;;;;;63.80;16.00;;;;;;;;;;5053270;28;20041;-58
2022/10/17 13:52:21;;;;;;;47.17;14.80;;;;;;;;;;5053288;28;20112;-59
2022/10/17 13:54:52;;;;;;;59.28;15.20;;;;;;;;;;5052588;28;20037;-58
2022/10/17 13:57:19;;;;;;;102.80;20.35;;;;;;;;;;5053061;28;20044;-59
2022/10/17 14:00:12;;;;;;;55.63;17.15;;;;;;;;;;5053555;28;20041;-59
2022/10/17 14:02:39;;;;;;;154.68;22.23;;;;;;;;;;5070385;28;20048;-58
2022/10/17 14:05:11;;;;;;;47.10;19.35;;;;;;;;;;5053420;28;20045;-58
2022/10/17 14:07:53;;;;;;;75.90;16.35;;;;;;;;;;5062784;28;20043;-58
2022/10/17 14:10:40;;;;;;;81.97;19.33;;;;;;;;;;5057269;28;20048;-59
2022/10/17 14:13:07;;;;;;;92.13;20.65;;;;;;;;;;5052562;28;20060;-58
2022/10/17 14:15:34;;;;;;;60.95;17.20;;;;;;;;;;5052766;28;20153;-58
2022/10/17 14:18:03;;;;;;;94.22;17.02;;;;;;;;;;5049890;28;20049;-58
2022/10/17 14:20:34;;;;;;;118.40;20.17;;;;;;;;;;5050735;28;20445;-59
2022/10/17 14:23:32;;;;;;;85.28;23.42;;;;;;;;;;5051492;28;20116;-58
2022/10/17 14:26:20;;;;;;;58.03;19.85;;;;;;;;;;5066281;28;20078;-58
2022/10/17 14:28:49;;;;;;;201.90;23.35;;;;;;;;;;5059409;28;20386;-58
2022/10/17 14:31:28;;;;;;;104.28;19.80;;;;;;;;;;5056340;28;20063;-58
2022/10/17 14:33:55;;;;;;;195.70;27.30;;;;;;;;;;5056053;28;20510;-58
2022/10/17 14:36:32;;;;;;;219.75;27.65;;;;;;;;;;5056382;28;20464;-58